Latest Weather Observations for Browse Island

IDW60801

Issued at 4:15 pm WST Monday 18 January 2021 (issued every 10 minutes, with the page automatically refreshed every 10 minutes)

About weather observations | Map of weather stations | Latest weather observations for WA | Other Formats
Station Details ID: 200784 Name: BROWSE ISLAND Lat: -14.11 Lon: 123.55 Height: 3.7 m
Data from the previous 72 hours. | See also: Recent months at Browse Island
Date/Time
WST
Temp
°C
App
Temp
°C
Dew
Point
°C
Rel
Hum
%
Delta-T
°C
Wind Press
QNH
hPa
Press
MSL
hPa
Rain since
9am
mm
Dir  Spd
km/h
Gust
km/h
Spd
kts
Gust
kts
18/04:00pm - - - - - W 15 17 8 9 1005.0 1005.4 -
18/03:30pm - - - - - W 17 20 9 11 1005.0 1004.9 -
18/03:00pm - - - - - W 17 - 9 - 1005.0 1005.0 -
18/02:30pm - - - - - WSW 19 22 10 12 1005.0 1004.9 -
18/02:00pm - - - - - W 17 - 9 - 1005.0 1005.3 -
18/01:30pm - - - - - WSW 17 - 9 - 1005.0 - -
18/01:00pm - - - - - WSW 19 - 10 - 1005.0 1005.7 -
18/12:30pm - - - - - WSW 19 20 10 11 1005.6 1005.5 -
18/12:00pm - - - - - WSW 20 - 11 - 1005.0 1005.3 -
18/11:30am - - - - - W 20 24 11 13 1005.4 1005.3 -
18/11:00am - - - - - W 20 - 11 - 1005.0 1005.5 -
18/10:30am - - - - - W 19 - 10 - 1006.0 - -
18/10:00am - - - - - W 19 - 10 - 1006.0 1006.1 -
18/09:30am - - - - - W 17 - 9 - 1006.0 - -
18/09:00am - - - - - WNW 17 - 9 - 1006.0 1006.3 -
18/08:30am - - - - - WNW 17 20 9 11 1006.3 1006.2 -
18/08:00am - - - - - WNW 15 - 8 - 1006.0 1006.0 -
18/07:30am - - - - - NW 13 - 7 - 1006.0 - -
18/07:00am - - - - - W 19 - 10 - 1006.0 1006.0 -
18/06:30am - - - - - WSW 17 - 9 - 1006.0 - -
18/06:00am - - - - - SW 15 - 8 - 1006.0 1006.0 -
18/05:30am - - - - - WSW 20 24 11 13 1005.6 1005.5 -
18/05:00am - - - - - WSW 22 - 12 - 1005.0 1005.1 -
18/04:30am - - - - - W 20 - 11 - 1004.0 - -
18/04:00am - - - - - WSW 22 - 12 - 1004.0 1004.4 -
18/03:30am - - - - - W 22 - 12 - 1004.0 - -
18/03:00am - - - - - WSW 22 - 12 - 1004.0 1004.8 -
18/02:30am - - - - - WSW 20 - 11 - 1004.0 - -
18/02:00am - - - - - W 17 - 9 - 1004.0 1004.8 -
18/01:30am - - - - - W 17 - 9 - 1004.0 - -
18/01:00am - - - - - W 17 - 9 - 1005.0 1004.9 -
18/12:30am - - - - - W 15 17 8 9 1005.1 1005.0 -
18/12:00am - - - - - W 13 - 7 - 1005.0 1005.4 -
 
Date/Time
WST
Temp
°C
App
Temp
°C
Dew
Point
°C
Rel
Hum
%
Delta-T
°C
Wind Press
QNH
hPa
Press
MSL
hPa
Rain since
9am
mm
Dir  Spd
km/h
Gust
km/h
Spd
kts
Gust
kts
17/11:30pm - - - - - WSW 13 15 7 8 1005.8 1005.7 -
17/11:00pm - - - - - WSW 11 - 6 - 1006.0 1006.0 -
17/10:30pm - - - - - WSW 11 - 6 - 1006.0 - -
17/10:00pm - - - - - W 11 - 6 - 1006.0 1006.3 -
17/09:30pm - - - - - W 9 - 5 - 1006.0 - -
17/09:00pm - - - - - WNW 7 - 4 - 1006.0 1006.3 -
17/08:30pm - - - - - CALM 0 - 0 - 1006.0 - -
17/08:00pm - - - - - CALM 0 - 0 - 1006.0 1006.0 -
17/07:30pm - - - - - CALM 0 - 0 - 1005.0 - -
17/07:00pm - - - - - CALM 0 - 0 - 1005.0 1005.2 -
17/06:30pm - - - - - CALM 0 0 0 0 1004.8 1004.7 -
17/06:00pm - - - - - NNE 2 - 1 - 1004.0 1004.4 -
17/05:30pm - - - - - NNE 7 9 4 5 1004.1 1004.0 -
17/05:00pm - - - - - NE 7 - 4 - 1003.0 1003.8 -
17/04:30pm - - - - - NE 7 - 4 - 1003.0 - -
17/04:00pm - - - - - NE 7 - 4 - 1003.0 1003.4 -
17/03:30pm - - - - - E 7 - 4 - 1003.0 - -
17/03:00pm - - - - - ESE 7 - 4 - 1003.0 1003.3 -
17/02:30pm - - - - - ESE 9 13 5 7 1003.5 1003.4 -
17/02:00pm - - - - - ESE 13 - 7 - 1003.0 1003.8 -
17/01:30pm - - - - - SE 13 - 7 - 1004.0 - -
17/01:00pm - - - - - SE 15 - 8 - 1004.0 1004.6 -
17/12:30pm - - - - - ESE 15 - 8 - 1005.0 - -
17/12:00pm - - - - - SE 15 - 8 - 1005.0 1005.3 -
17/11:30am - - - - - SE 19 - 10 - 1005.0 - -
17/11:00am - - - - - SE 24 - 13 - 1006.0 1005.9 -
17/10:30am - - - - - SE 24 - 13 - 1006.0 - -
17/10:00am - - - - - SE 28 - 15 - 1006.0 1006.3 -
17/09:30am - - - - - SE 32 - 17 - 1006.0 - -
17/09:00am - - - - - ESE 24 - 13 - 1006.0 1006.6 -
17/08:30am - - - - - SE 22 - 12 - 1006.0 - -
17/08:00am - - - - - SE 26 - 14 - 1006.0 1006.4 -
17/07:30am - - - - - SE 28 - 15 - 1006.0 - -
17/07:00am - - - - - S 20 - 11 - 1006.0 1006.0 -
17/06:30am - - - - - S 15 - 8 - 1006.0 - -
17/06:00am - - - - - S 13 - 7 - 1005.0 1005.6 -
17/05:30am - - - - - SSW 13 - 7 - 1005.0 - -
17/05:00am - - - - - SSW 11 - 6 - 1004.0 1004.8 -
17/04:30am - - - - - SW 9 - 5 - 1004.0 - -
17/04:00am - - - - - WSW 7 - 4 - 1004.0 1004.0 -
17/03:30am - - - - - WSW 9 - 5 - 1003.0 - -
17/03:00am - - - - - W 9 - 5 - 1003.0 1003.6 -
17/02:30am - - - - - W 7 - 4 - 1003.0 - -
17/02:00am - - - - - NW 11 - 6 - 1003.0 1003.3 -
17/01:30am - - - - - NW 7 - 4 - 1003.0 - -
17/01:00am - - - - - NW 9 - 5 - 1003.0 1003.1 -
17/12:30am - - - - - N 11 - 6 - 1003.0 - -
17/12:00am - - - - - NE 6 - 3 - 1003.0 1003.7 -
 
Date/Time
WST
Temp
°C
App
Temp
°C
Dew
Point
°C
Rel
Hum
%
Delta-T
°C
Wind Press
QNH
hPa
Press
MSL
hPa
Rain since
9am
mm
Dir  Spd
km/h
Gust
km/h
Spd
kts
Gust
kts
16/11:30pm - - - - - ENE 13 - 7 - 1004.0 - -
16/11:00pm - - - - - E 20 - 11 - 1005.0 1004.9 -
16/10:30pm - - - - - E 22 - 12 - 1005.0 - -
16/10:00pm - - - - - ESE 26 - 14 - 1006.0 1006.2 -
16/09:30pm - - - - - ESE 44 59 24 32 1007.3 1007.2 -
16/09:23pm - - - - - ESE 28 48 15 26 1007.6 1007.5 -
16/09:21pm - - - - - ESE 22 43 12 23 1007.5 1007.4 -
16/09:00pm - - - - - N 7 - 4 - 1006.0 1006.0 -
16/08:30pm - - - - - SSE 4 - 2 - 1005.0 - -
16/08:00pm - - - - - SSE 6 - 3 - 1005.0 1005.3 -
16/07:30pm - - - - - SE 9 - 5 - 1005.0 - -
16/07:00pm - - - - - SSE 9 - 5 - 1004.0 1004.5 -
16/06:30pm - - - - - SSE 11 13 6 7 1004.0 1003.9 -
16/06:00pm - - - - - S 13 - 7 - 1003.0 1003.4 -
16/05:30pm - - - - - SSE 15 - 8 - 1003.0 - -
16/05:00pm - - - - - S 17 - 9 - 1003.0 1002.9 -
16/04:30pm - - - - - S 17 - 9 - 1002.0 - -
16/04:00pm - - - - - SSE 15 - 8 - 1002.0 1002.6 -
16/03:30pm - - - - - SE 13 17 7 9 1002.7 1002.6 -
16/03:00pm - - - - - SSE 15 - 8 - 1003.0 1003.2 -
16/02:30pm - - - - - SE 19 22 10 12 1003.5 1003.4 -
16/02:00pm - - - - - SE 22 - 12 - 1003.0 1003.5 -
16/01:30pm - - - - - SSE 24 - 13 - 1003.0 - -
16/01:00pm - - - - - SE 22 - 12 - 1003.0 1003.8 -
16/12:30pm - - - - - ESE 19 - 10 - 1004.0 - -
16/12:00pm - - - - - ESE 15 - 8 - 1004.0 1004.7 -
16/11:30am - - - - - ESE 17 - 9 - 1005.0 - -
16/11:00am - - - - - SE 15 - 8 - 1005.0 1005.0 -
16/10:30am - - - - - SSE 13 - 7 - 1005.0 - -
16/10:00am - - - - - SE 15 - 8 - 1005.0 1005.3 -
16/09:30am - - - - - SE 13 - 7 - 1005.0 - -
16/09:00am - - - - - SSE 15 - 8 - 1005.0 1005.1 -
16/08:30am - - - - - S 17 - 9 - 1005.0 - -
16/08:00am - - - - - SSE 17 - 9 - 1005.0 1005.1 -
16/07:30am - - - - - SSW 15 - 8 - 1004.0 - -
16/07:00am - - - - - SW 11 - 6 - 1004.0 1004.5 -
16/06:30am - - - - - SSW 11 - 6 - 1004.0 - -
16/06:00am - - - - - SW 13 - 7 - 1004.0 1004.3 -
16/05:30am - - - - - SW 11 - 6 - 1004.0 - -
16/05:00am - - - - - WSW 9 11 5 6 1004.0 1003.9 -
16/04:30am - - - - - W 13 - 7 - 1003.0 - -
16/04:00am - - - - - W 13 - 7 - 1003.0 1003.4 -
16/03:30am - - - - - WNW 17 - 9 - 1003.0 - -
16/03:00am - - - - - NW 17 - 9 - 1002.0 1002.8 -
16/02:30am - - - - - NW 19 - 10 - 1002.0 - -
16/02:00am - - - - - WNW 15 - 8 - 1003.0 1003.1 -
16/01:30am - - - - - W 15 - 8 - 1003.0 - -
16/01:00am - - - - - W 15 - 8 - 1003.0 1003.8 -
16/12:30am - - - - - W 13 - 7 - 1004.0 - -
16/12:00am - - - - - SSW 11 - 6 - 1005.0 1004.9 -
 
Date/Time
WST
Temp
°C
App
Temp
°C
Dew
Point
°C
Rel
Hum
%
Delta-T
°C
Wind Press
QNH
hPa
Press
MSL
hPa
Rain since
9am
mm
Dir  Spd
km/h
Gust
km/h
Spd
kts
Gust
kts
15/11:30pm - - - - - S 17 17 9 9 1005.7 1005.6 -
15/11:00pm - - - - - SSE 17 - 9 - 1005.0 1005.8 -
15/10:30pm - - - - - S 20 - 11 - 1006.0 - -
15/10:00pm - - - - - SSE 17 - 9 - 1006.0 1006.5 -
15/09:30pm - - - - - SE 11 - 6 - 1006.0 - -
15/09:00pm - - - - - CALM 0 - 0 - 1006.0 1005.9 -
15/08:30pm - - - - - CALM 0 - 0 - 1005.0 - -
15/08:00pm - - - - - SSE 7 - 4 - 1005.0 1005.1 -
15/07:30pm - - - - - CALM 0 - 0 - 1005.0 - -
15/07:00pm - - - - - NNW 4 - 2 - 1004.0 1004.4 -
15/06:30pm - - - - - NNW 2 - 1 - 1004.0 - -
15/06:00pm - - - - - N 4 - 2 - 1003.0 1003.5 -
15/05:30pm - - - - - NNW 7 - 4 - 1003.0 - -
15/05:00pm - - - - - NW 9 - 5 - 1003.0 1003.0 -
15/04:30pm - - - - - NW 11 - 6 - 1003.0 - -

Other formats

Comma delimited format used in spreadsheet applications
http://www.bom.gov.au/fwo/IDW60801/IDW60801.94103.axf

JavaScript Object Notation format (JSON) in row-major order
http://www.bom.gov.au/fwo/IDW60801/IDW60801.94103.json

Data quality

Most of these data are generated automatically and are frequently updated. Quality checks on data are not normally performed. It is possible for incorrect values to appear. Refer to information at About Latest Weather Observations and please check the disclaimer before using these data.